sensor_id;sensor_type;location;lat;lon;timestamp;P1;durP1;ratioP1;P2;durP2;ratioP2
15307;SDS011;7755;52.208;6.964;2022-08-19T00:45:52;10.33;;;9.43;;
15307;SDS011;7755;52.208;6.964;2022-08-19T00:49:56;9.87;;;8.97;;
15307;SDS011;7755;52.208;6.964;2022-08-19T00:53:59;10.50;;;9.60;;
15307;SDS011;7755;52.208;6.964;2022-08-19T00:58:04;10.60;;;9.63;;
15307;SDS011;7755;52.208;6.964;2022-08-19T01:02:10;10.63;;;9.67;;
15307;SDS011;7755;52.208;6.964;2022-08-19T01:06:13;10.33;;;9.43;;
15307;SDS011;7755;52.208;6.964;2022-08-19T01:10:16;10.00;;;9.10;;
15307;SDS011;7755;52.208;6.964;2022-08-19T01:14:20;12.20;;;10.87;;
15307;SDS011;7755;52.208;6.964;2022-08-19T01:18:24;11.77;;;10.77;;
15307;SDS011;7755;52.208;6.964;2022-08-19T01:22:29;10.50;;;9.60;;
15307;SDS011;7755;52.208;6.964;2022-08-19T01:26:38;10.97;;;10.07;;
15307;SDS011;7755;52.208;6.964;2022-08-19T01:30:42;11.83;;;10.83;;
15307;SDS011;7755;52.208;6.964;2022-08-19T01:34:43;12.33;;;11.27;;
15307;SDS011;7755;52.208;6.964;2022-08-19T01:38:48;12.30;;;11.30;;
15307;SDS011;7755;52.208;6.964;2022-08-19T01:42:50;12.67;;;11.50;;
15307;SDS011;7755;52.208;6.964;2022-08-19T01:46:53;13.27;;;12.07;;
15307;SDS011;7755;52.208;6.964;2022-08-19T01:50:55;14.03;;;12.67;;
15307;SDS011;7755;52.208;6.964;2022-08-19T01:54:58;12.20;;;11.00;;
15307;SDS011;7755;52.208;6.964;2022-08-19T01:59:02;13.90;;;12.23;;
15307;SDS011;7755;52.208;6.964;2022-08-19T02:03:06;12.90;;;11.70;;
15307;SDS011;7755;52.208;6.964;2022-08-19T02:07:10;14.50;;;13.10;;
15307;SDS011;7755;52.208;6.964;2022-08-19T02:11:18;13.23;;;12.03;;
15307;SDS011;7755;52.208;6.964;2022-08-19T02:15:23;15.03;;;12.07;;
15307;SDS011;7755;52.208;6.964;2022-08-19T02:19:25;13.70;;;12.37;;
15307;SDS011;7755;52.208;6.964;2022-08-19T02:23:27;11.10;;;10.20;;
15307;SDS011;7755;52.208;6.964;2022-08-19T02:27:31;11.97;;;10.97;;
15307;SDS011;7755;52.208;6.964;2022-08-19T02:31:33;12.90;;;11.80;;
15307;SDS011;7755;52.208;6.964;2022-08-19T02:35:36;13.90;;;12.70;;
15307;SDS011;7755;52.208;6.964;2022-08-19T02:39:37;12.93;;;11.73;;
15307;SDS011;7755;52.208;6.964;2022-08-19T02:43:40;9.87;;;9.07;;
15307;SDS011;7755;52.208;6.964;2022-08-19T02:47:42;8.47;;;7.77;;
15307;SDS011;7755;52.208;6.964;2022-08-19T02:51:45;10.27;;;9.30;;
15307;SDS011;7755;52.208;6.964;2022-08-19T02:55:47;10.50;;;9.43;;
15307;SDS011;7755;52.208;6.964;2022-08-19T02:59:51;9.73;;;8.93;;
15307;SDS011;7755;52.208;6.964;2022-08-19T03:03:52;10.43;;;9.53;;
15307;SDS011;7755;52.208;6.964;2022-08-19T03:07:55;9.93;;;9.07;;
15307;SDS011;7755;52.208;6.964;2022-08-19T03:11:57;9.23;;;8.50;;
15307;SDS011;7755;52.208;6.964;2022-08-19T03:16:00;7.60;;;6.97;;
15307;SDS011;7755;52.208;6.964;2022-08-19T03:20:06;7.80;;;7.20;;
15307;SDS011;7755;52.208;6.964;2022-08-19T03:24:14;6.93;;;6.33;;
15307;SDS011;7755;52.208;6.964;2022-08-19T03:28:17;7.47;;;6.87;;
15307;SDS011;7755;52.208;6.964;2022-08-19T03:32:20;10.33;;;9.43;;
15307;SDS011;7755;52.208;6.964;2022-08-19T03:36:23;8.13;;;7.43;;
15307;SDS011;7755;52.208;6.964;2022-08-19T03:40:27;7.20;;;6.60;;
15307;SDS011;7755;52.208;6.964;2022-08-19T03:44:30;6.30;;;5.87;;
15307;SDS011;7755;52.208;6.964;2022-08-19T03:48:34;5.90;;;5.50;;
15307;SDS011;7755;52.208;6.964;2022-08-19T03:52:37;6.70;;;6.20;;
15307;SDS011;7755;52.208;6.964;2022-08-19T03:56:40;8.00;;;7.40;;
15307;SDS011;7755;52.208;6.964;2022-08-19T04:00:44;7.07;;;6.57;;
15307;SDS011;7755;52.208;6.964;2022-08-19T04:04:47;8.07;;;7.47;;
15307;SDS011;7755;52.208;6.964;2022-08-19T04:08:49;6.93;;;6.43;;
15307;SDS011;7755;52.208;6.964;2022-08-19T04:12:54;8.57;;;7.87;;
15307;SDS011;7755;52.208;6.964;2022-08-19T04:16:56;10.03;;;9.23;;
15307;SDS011;7755;52.208;6.964;2022-08-19T04:20:59;12.20;;;11.10;;
15307;SDS011;7755;52.208;6.964;2022-08-19T04:25:01;13.07;;;11.80;;
15307;SDS011;7755;52.208;6.964;2022-08-19T04:29:05;10.37;;;9.47;;
15307;SDS011;7755;52.208;6.964;2022-08-19T04:33:10;9.17;;;8.37;;
15307;SDS011;7755;52.208;6.964;2022-08-19T04:37:14;9.63;;;8.83;;
15307;SDS011;7755;52.208;6.964;2022-08-19T04:41:16;9.83;;;9.03;;
15307;SDS011;7755;52.208;6.964;2022-08-19T04:45:36;8.70;;;8.00;;
15307;SDS011;7755;52.208;6.964;2022-08-19T04:49:38;11.67;;;10.50;;
15307;SDS011;7755;52.208;6.964;2022-08-19T04:53:41;10.63;;;9.73;;
15307;SDS011;7755;52.208;6.964;2022-08-19T04:57:44;10.13;;;9.20;;
15307;SDS011;7755;52.208;6.964;2022-08-19T05:01:46;10.03;;;9.23;;
15307;SDS011;7755;52.208;6.964;2022-08-19T05:05:50;10.43;;;9.43;;
15307;SDS011;7755;52.208;6.964;2022-08-19T05:09:53;10.37;;;9.47;;
15307;SDS011;7755;52.208;6.964;2022-08-19T05:13:55;9.83;;;9.03;;
15307;SDS011;7755;52.208;6.964;2022-08-19T05:17:57;10.97;;;9.97;;
15307;SDS011;7755;52.208;6.964;2022-08-19T05:22:17;11.63;;;10.43;;
15307;SDS011;7755;52.208;6.964;2022-08-19T05:26:37;12.50;;;11.37;;
15307;SDS011;7755;52.208;6.964;2022-08-19T05:30:40;12.63;;;11.33;;
15307;SDS011;7755;52.208;6.964;2022-08-19T05:34:45;13.17;;;11.80;;
15307;SDS011;7755;52.208;6.964;2022-08-19T05:38:46;14.77;;;13.37;;
15307;SDS011;7755;52.208;6.964;2022-08-19T05:42:51;15.73;;;14.27;;
15307;SDS011;7755;52.208;6.964;2022-08-19T05:48:11;15.40;;;13.90;;
15307;SDS011;7755;52.208;6.964;2022-08-19T05:52:14;15.47;;;13.97;;
15307;SDS011;7755;52.208;6.964;2022-08-19T05:56:17;17.33;;;15.73;;
15307;SDS011;7755;52.208;6.964;2022-08-19T06:00:19;17.70;;;15.90;;
15307;SDS011;7755;52.208;6.964;2022-08-19T06:04:23;19.10;;;17.30;;
15307;SDS011;7755;52.208;6.964;2022-08-19T06:08:26;15.73;;;14.23;;
15307;SDS011;7755;52.208;6.964;2022-08-19T06:12:29;17.17;;;15.50;;
15307;SDS011;7755;52.208;6.964;2022-08-19T06:16:33;16.93;;;15.33;;
15307;SDS011;7755;52.208;6.964;2022-08-19T06:20:37;15.97;;;14.27;;
15307;SDS011;7755;52.208;6.964;2022-08-19T06:24:39;16.07;;;14.53;;
15307;SDS011;7755;52.208;6.964;2022-08-19T06:28:42;15.10;;;13.60;;
15307;SDS011;7755;52.208;6.964;2022-08-19T06:32:46;15.90;;;14.40;;
15307;SDS011;7755;52.208;6.964;2022-08-19T06:36:51;17.80;;;16.10;;
15307;SDS011;7755;52.208;6.964;2022-08-19T06:40:59;20.50;;;18.60;;
15307;SDS011;7755;52.208;6.964;2022-08-19T06:45:02;21.63;;;19.53;;
15307;SDS011;7755;52.208;6.964;2022-08-19T06:49:04;21.07;;;19.07;;
15307;SDS011;7755;52.208;6.964;2022-08-19T06:53:11;22.23;;;19.87;;
15307;SDS011;7755;52.208;6.964;2022-08-19T06:57:13;19.90;;;18.00;;
15307;SDS011;7755;52.208;6.964;2022-08-19T07:01:15;20.37;;;18.37;;
15307;SDS011;7755;52.208;6.964;2022-08-19T07:05:17;19.80;;;17.90;;
15307;SDS011;7755;52.208;6.964;2022-08-19T07:09:21;21.97;;;19.60;;
15307;SDS011;7755;52.208;6.964;2022-08-19T07:13:23;19.17;;;17.27;;
15307;SDS011;7755;52.208;6.964;2022-08-19T07:17:31;22.50;;;20.07;;
15307;SDS011;7755;52.208;6.964;2022-08-19T07:21:33;23.40;;;20.97;;
15307;SDS011;7755;52.208;6.964;2022-08-19T07:25:38;19.60;;;17.73;;
15307;SDS011;7755;52.208;6.964;2022-08-19T07:29:40;20.57;;;18.53;;
15307;SDS011;7755;52.208;6.964;2022-08-19T07:33:43;19.93;;;18.00;;
15307;SDS011;7755;52.208;6.964;2022-08-19T07:37:47;18.03;;;16.33;;
15307;SDS011;7755;52.208;6.964;2022-08-19T07:41:51;19.60;;;16.60;;
15307;SDS011;7755;52.208;6.964;2022-08-19T07:45:54;16.13;;;14.67;;
15307;SDS011;7755;52.208;6.964;2022-08-19T07:49:57;15.07;;;13.70;;
15307;SDS011;7755;52.208;6.964;2022-08-19T07:53:59;16.93;;;15.33;;
15307;SDS011;7755;52.208;6.964;2022-08-19T07:58:03;15.93;;;14.50;;
15307;SDS011;7755;52.208;6.964;2022-08-19T08:02:05;15.97;;;14.47;;
15307;SDS011;7755;52.208;6.964;2022-08-19T08:06:08;16.00;;;14.50;;
15307;SDS011;7755;52.208;6.964;2022-08-19T08:10:33;14.83;;;13.53;;
15307;SDS011;7755;52.208;6.964;2022-08-19T08:14:37;13.43;;;12.13;;
15307;SDS011;7755;52.208;6.964;2022-08-19T08:18:41;14.10;;;12.90;;
15307;SDS011;7755;52.208;6.964;2022-08-19T08:22:44;14.83;;;13.57;;
15307;SDS011;7755;52.208;6.964;2022-08-19T08:27:05;11.87;;;10.77;;
15307;SDS011;7755;52.208;6.964;2022-08-19T08:31:08;13.60;;;12.20;;
15307;SDS011;7755;52.208;6.964;2022-08-19T08:35:13;14.20;;;12.70;;
15307;SDS011;7755;52.208;6.964;2022-08-19T08:39:18;14.57;;;13.27;;
15307;SDS011;7755;52.208;6.964;2022-08-19T08:43:24;15.17;;;13.83;;
15307;SDS011;7755;52.208;6.964;2022-08-19T08:47:34;14.00;;;12.77;;
15307;SDS011;7755;52.208;6.964;2022-08-19T08:51:40;13.23;;;11.77;;
15307;SDS011;7755;52.208;6.964;2022-08-19T08:55:45;13.07;;;11.87;;
15307;SDS011;7755;52.208;6.964;2022-08-19T08:59:48;15.23;;;13.80;;
15307;SDS011;7755;52.208;6.964;2022-08-19T09:03:56;14.63;;;13.37;;
15307;SDS011;7755;52.208;6.964;2022-08-19T09:07:59;14.50;;;13.17;;
15307;SDS011;7755;52.208;6.964;2022-08-19T09:12:07;14.50;;;13.23;;
15307;SDS011;7755;52.208;6.964;2022-08-19T09:16:16;14.80;;;13.40;;
15307;SDS011;7755;52.208;6.964;2022-08-19T09:20:23;12.07;;;11.03;;
15307;SDS011;7755;52.208;6.964;2022-08-19T09:24:25;10.03;;;9.20;;
15307;SDS011;7755;52.208;6.964;2022-08-19T09:28:28;9.30;;;8.50;;
15307;SDS011;7755;52.208;6.964;2022-08-19T09:32:30;12.47;;;11.37;;
15307;SDS011;7755;52.208;6.964;2022-08-19T09:36:33;10.65;;;9.75;;
15307;SDS011;7755;52.208;6.964;2022-08-19T09:40:39;10.17;;;9.30;;
15307;SDS011;7755;52.208;6.964;2022-08-19T09:44:41;9.52;;;8.77;;
15307;SDS011;7755;52.208;6.964;2022-08-19T09:48:43;10.87;;;9.87;;
15307;SDS011;7755;52.208;6.964;2022-08-19T09:52:49;10.65;;;9.75;;
15307;SDS011;7755;52.208;6.964;2022-08-19T09:56:53;12.32;;;11.32;;
15307;SDS011;7755;52.208;6.964;2022-08-19T10:04:54;9.43;;;8.63;;
15307;SDS011;7755;52.208;6.964;2022-08-19T10:09:14;9.23;;;8.52;;
15307;SDS011;7755;52.208;6.964;2022-08-19T10:13:20;11.17;;;10.17;;
15307;SDS011;7755;52.208;6.964;2022-08-19T10:17:25;10.27;;;9.48;;
15307;SDS011;7755;52.208;6.964;2022-08-19T10:21:30;11.95;;;10.77;;
15307;SDS011;7755;52.208;6.964;2022-08-19T10:25:34;13.05;;;11.82;;
15307;SDS011;7755;52.208;6.964;2022-08-19T10:29:36;12.60;;;11.45;;
15307;SDS011;7755;52.208;6.964;2022-08-19T10:33:38;13.88;;;12.63;;
15307;SDS011;7755;52.208;6.964;2022-08-19T10:37:42;13.07;;;12.00;;
15307;SDS011;7755;52.208;6.964;2022-08-19T10:41:44;12.68;;;11.57;;
15307;SDS011;7755;52.208;6.964;2022-08-19T10:45:48;14.93;;;13.63;;
15307;SDS011;7755;52.208;6.964;2022-08-19T10:49:54;15.07;;;13.67;;
15307;SDS011;7755;52.208;6.964;2022-08-19T10:54:18;14.25;;;12.90;;
15307;SDS011;7755;52.208;6.964;2022-08-19T10:58:21;11.85;;;10.82;;
15307;SDS011;7755;52.208;6.964;2022-08-19T11:02:26;12.10;;;10.80;;
15307;SDS011;7755;52.208;6.964;2022-08-19T11:06:29;9.10;;;8.40;;
15307;SDS011;7755;52.208;6.964;2022-08-19T11:10:34;9.77;;;8.98;;
15307;SDS011;7755;52.208;6.964;2022-08-19T11:14:36;11.73;;;10.68;;
15307;SDS011;7755;52.208;6.964;2022-08-19T11:18:39;9.32;;;8.52;;
15307;SDS011;7755;52.208;6.964;2022-08-19T11:22:42;10.30;;;9.27;;
15307;SDS011;7755;52.208;6.964;2022-08-19T11:26:47;12.05;;;11.10;;
15307;SDS011;7755;52.208;6.964;2022-08-19T11:30:50;11.88;;;10.68;;
15307;SDS011;7755;52.208;6.964;2022-08-19T11:34:52;11.40;;;10.50;;
15307;SDS011;7755;52.208;6.964;2022-08-19T11:38:54;12.85;;;11.85;;
15307;SDS011;7755;52.208;6.964;2022-08-19T11:42:58;12.50;;;11.40;;
15307;SDS011;7755;52.208;6.964;2022-08-19T11:47:00;11.68;;;10.63;;
15307;SDS011;7755;52.208;6.964;2022-08-19T11:51:03;13.95;;;12.52;;
15307;SDS011;7755;52.208;6.964;2022-08-19T11:55:07;10.85;;;10.05;;
15307;SDS011;7755;52.208;6.964;2022-08-19T11:59:12;12.68;;;11.57;;
15307;SDS011;7755;52.208;6.964;2022-08-19T12:03:14;11.23;;;10.32;;
15307;SDS011;7755;52.208;6.964;2022-08-19T12:07:17;10.60;;;9.70;;
15307;SDS011;7755;52.208;6.964;2022-08-19T12:11:19;10.13;;;9.25;;
15307;SDS011;7755;52.208;6.964;2022-08-19T12:15:22;11.73;;;10.60;;
15307;SDS011;7755;52.208;6.964;2022-08-19T12:19:24;10.00;;;9.23;;
15307;SDS011;7755;52.208;6.964;2022-08-19T12:23:27;9.85;;;9.15;;
15307;SDS011;7755;52.208;6.964;2022-08-19T12:27:30;10.23;;;9.35;;
15307;SDS011;7755;52.208;6.964;2022-08-19T12:31:34;10.30;;;9.27;;
15307;SDS011;7755;52.208;6.964;2022-08-19T12:35:38;7.10;;;6.50;;
15307;SDS011;7755;52.208;6.964;2022-08-19T12:39:41;6.85;;;6.35;;
15307;SDS011;7755;52.208;6.964;2022-08-19T12:43:44;7.30;;;6.70;;
15307;SDS011;7755;52.208;6.964;2022-08-19T12:47:50;7.53;;;6.88;;
15307;SDS011;7755;52.208;6.964;2022-08-19T12:51:53;7.32;;;6.63;;
15307;SDS011;7755;52.208;6.964;2022-08-19T12:55:55;8.50;;;7.80;;
15307;SDS011;7755;52.208;6.964;2022-08-19T12:59:58;7.57;;;6.88;;
15307;SDS011;7755;52.208;6.964;2022-08-19T13:04:02;7.28;;;6.70;;
15307;SDS011;7755;52.208;6.964;2022-08-19T13:08:04;7.60;;;6.90;;
15307;SDS011;7755;52.208;6.964;2022-08-19T13:12:06;8.25;;;7.35;;
15307;SDS011;7755;52.208;6.964;2022-08-19T13:16:13;7.55;;;6.95;;
15307;SDS011;7755;52.208;6.964;2022-08-19T13:20:18;7.15;;;6.60;;
15307;SDS011;7755;52.208;6.964;2022-08-19T13:24:21;5.78;;;5.28;;
15307;SDS011;7755;52.208;6.964;2022-08-19T13:28:24;5.70;;;5.15;;
15307;SDS011;7755;52.208;6.964;2022-08-19T13:32:26;5.80;;;5.35;;
15307;SDS011;7755;52.208;6.964;2022-08-19T13:36:49;5.35;;;4.90;;
15307;SDS011;7755;52.208;6.964;2022-08-19T13:40:51;6.93;;;6.35;;
15307;SDS011;7755;52.208;6.964;2022-08-19T13:44:54;6.20;;;5.72;;
15307;SDS011;7755;52.208;6.964;2022-08-19T13:48:56;6.30;;;5.75;;
15307;SDS011;7755;52.208;6.964;2022-08-19T13:52:59;5.55;;;5.00;;
15307;SDS011;7755;52.208;6.964;2022-08-19T13:57:02;4.75;;;4.35;;
15307;SDS011;7755;52.208;6.964;2022-08-19T14:01:05;5.68;;;5.25;;
15307;SDS011;7755;52.208;6.964;2022-08-19T14:05:08;5.82;;;5.43;;
15307;SDS011;7755;52.208;6.964;2022-08-19T14:09:14;6.38;;;5.88;;
15307;SDS011;7755;52.208;6.964;2022-08-19T14:13:17;6.38;;;5.88;;
15307;SDS011;7755;52.208;6.964;2022-08-19T14:17:21;7.55;;;6.80;;
15307;SDS011;7755;52.208;6.964;2022-08-19T14:21:23;8.60;;;7.97;;
15307;SDS011;7755;52.208;6.964;2022-08-19T14:25:28;9.25;;;8.45;;
15307;SDS011;7755;52.208;6.964;2022-08-19T14:29:33;8.18;;;7.47;;
15307;SDS011;7755;52.208;6.964;2022-08-19T14:33:36;8.65;;;7.93;;
15307;SDS011;7755;52.208;6.964;2022-08-19T15:02:01;8.98;;;8.10;;
15307;SDS011;7755;52.208;6.964;2022-08-19T15:10:42;7.65;;;7.05;;
15307;SDS011;7755;52.208;6.964;2022-08-19T15:14:46;8.32;;;7.63;;
15307;SDS011;7755;52.208;6.964;2022-08-19T15:18:51;8.48;;;7.78;;
15307;SDS011;7755;52.208;6.964;2022-08-19T15:22:54;9.60;;;8.75;;
15307;SDS011;7755;52.208;6.964;2022-08-19T15:26:56;10.05;;;7.47;;
15307;SDS011;7755;52.208;6.964;2022-08-19T15:31:00;8.98;;;8.18;;
15307;SDS011;7755;52.208;6.964;2022-08-19T15:35:03;7.95;;;7.35;;
15307;SDS011;7755;52.208;6.964;2022-08-19T15:39:06;8.27;;;7.40;;
15307;SDS011;7755;52.208;6.964;2022-08-19T15:43:09;7.90;;;7.20;;
15307;SDS011;7755;52.208;6.964;2022-08-19T15:47:13;7.53;;;6.80;;
15307;SDS011;7755;52.208;6.964;2022-08-19T15:51:15;7.47;;;6.78;;
15307;SDS011;7755;52.208;6.964;2022-08-19T15:55:19;6.40;;;5.90;;
15307;SDS011;7755;52.208;6.964;2022-08-19T15:59:22;6.60;;;6.00;;
15307;SDS011;7755;52.208;6.964;2022-08-19T16:03:43;6.53;;;6.03;;
15307;SDS011;7755;52.208;6.964;2022-08-19T16:08:03;6.10;;;5.50;;
15307;SDS011;7755;52.208;6.964;2022-08-19T16:12:05;7.20;;;6.60;;
15307;SDS011;7755;52.208;6.964;2022-08-19T16:16:07;6.90;;;6.40;;
15307;SDS011;7755;52.208;6.964;2022-08-19T16:20:11;8.15;;;7.45;;
15307;SDS011;7755;52.208;6.964;2022-08-19T16:24:13;7.50;;;6.80;;
15307;SDS011;7755;52.208;6.964;2022-08-19T16:28:17;7.50;;;6.80;;
15307;SDS011;7755;52.208;6.964;2022-08-19T16:32:19;7.45;;;6.75;;
15307;SDS011;7755;52.208;6.964;2022-08-19T16:36:22;7.53;;;6.75;;
15307;SDS011;7755;52.208;6.964;2022-08-19T16:40:25;8.85;;;8.15;;
15307;SDS011;7755;52.208;6.964;2022-08-19T16:44:27;11.23;;;9.98;;
15307;SDS011;7755;52.208;6.964;2022-08-19T16:48:29;12.90;;;11.80;;
15307;SDS011;7755;52.208;6.964;2022-08-19T16:52:33;14.82;;;13.40;;
15307;SDS011;7755;52.208;6.964;2022-08-19T16:56:36;17.70;;;15.73;;
15307;SDS011;7755;52.208;6.964;2022-08-19T17:00:38;19.30;;;17.10;;
15307;SDS011;7755;52.208;6.964;2022-08-19T17:04:41;19.23;;;17.23;;
15307;SDS011;7755;52.208;6.964;2022-08-19T17:08:44;17.20;;;15.70;;
15307;SDS011;7755;52.208;6.964;2022-08-19T17:12:46;19.77;;;17.87;;
15307;SDS011;7755;52.208;6.964;2022-08-19T17:16:48;20.13;;;18.07;;
15307;SDS011;7755;52.208;6.964;2022-08-19T17:20:51;20.40;;;18.40;;
15307;SDS011;7755;52.208;6.964;2022-08-19T17:24:54;19.07;;;17.27;;
15307;SDS011;7755;52.208;6.964;2022-08-19T17:28:57;19.53;;;17.60;;
15307;SDS011;7755;52.208;6.964;2022-08-19T17:33:00;17.13;;;15.53;;
15307;SDS011;7755;52.208;6.964;2022-08-19T17:37:01;15.53;;;14.03;;
15307;SDS011;7755;52.208;6.964;2022-08-19T17:41:05;14.20;;;12.77;;
15307;SDS011;7755;52.208;6.964;2022-08-19T17:45:07;14.67;;;13.23;;
15307;SDS011;7755;52.208;6.964;2022-08-19T17:49:10;15.07;;;13.77;;
15307;SDS011;7755;52.208;6.964;2022-08-19T17:53:13;15.03;;;13.53;;
15307;SDS011;7755;52.208;6.964;2022-08-19T17:57:16;14.13;;;12.63;;
15307;SDS011;7755;52.208;6.964;2022-08-19T18:01:18;14.67;;;13.20;;
15307;SDS011;7755;52.208;6.964;2022-08-19T18:05:20;16.23;;;14.80;;
15307;SDS011;7755;52.208;6.964;2022-08-19T18:09:29;16.53;;;14.93;;
15307;SDS011;7755;52.208;6.964;2022-08-19T18:13:42;15.13;;;13.70;;
15307;SDS011;7755;52.208;6.964;2022-08-19T18:17:44;14.20;;;13.00;;
15307;SDS011;7755;52.208;6.964;2022-08-19T18:21:46;18.93;;;17.13;;
15307;SDS011;7755;52.208;6.964;2022-08-19T18:25:48;21.50;;;19.17;;
15307;SDS011;7755;52.208;6.964;2022-08-19T18:29:53;20.13;;;18.23;;
15307;SDS011;7755;52.208;6.964;2022-08-19T18:33:58;22.73;;;20.43;;
15307;SDS011;7755;52.208;6.964;2022-08-19T18:38:00;23.90;;;21.57;;
15307;SDS011;7755;52.208;6.964;2022-08-19T18:42:24;24.90;;;22.30;;
15307;SDS011;7755;52.208;6.964;2022-08-19T18:46:50;23.33;;;20.97;;
15307;SDS011;7755;52.208;6.964;2022-08-19T18:51:09;26.70;;;23.93;;
15307;SDS011;7755;52.208;6.964;2022-08-19T18:55:11;21.47;;;19.47;;
15307;SDS011;7755;52.208;6.964;2022-08-19T18:59:15;23.03;;;20.60;;
15307;SDS011;7755;52.208;6.964;2022-08-19T19:03:21;28.20;;;25.30;;
15307;SDS011;7755;52.208;6.964;2022-08-19T19:07:23;24.43;;;21.93;;
15307;SDS011;7755;52.208;6.964;2022-08-19T19:11:27;20.47;;;18.37;;
15307;SDS011;7755;52.208;6.964;2022-08-19T19:15:30;25.40;;;22.80;;
15307;SDS011;7755;52.208;6.964;2022-08-19T19:19:33;23.60;;;21.27;;
15307;SDS011;7755;52.208;6.964;2022-08-19T19:23:35;24.53;;;22.03;;
15307;SDS011;7755;52.208;6.964;2022-08-19T19:27:39;22.07;;;19.90;;
15307;SDS011;7755;52.208;6.964;2022-08-19T19:31:41;22.23;;;20.03;;
15307;SDS011;7755;52.208;6.964;2022-08-19T19:35:45;22.63;;;20.33;;
15307;SDS011;7755;52.208;6.964;2022-08-19T19:39:47;26.10;;;23.47;;
15307;SDS011;7755;52.208;6.964;2022-08-19T19:43:49;23.83;;;21.53;;
15307;SDS011;7755;52.208;6.964;2022-08-19T19:47:51;21.73;;;19.67;;
15307;SDS011;7755;52.208;6.964;2022-08-19T19:51:54;25.17;;;22.57;;
15307;SDS011;7755;52.208;6.964;2022-08-19T19:55:56;23.53;;;21.10;;
15307;SDS011;7755;52.208;6.964;2022-08-19T19:59:58;23.67;;;21.20;;
15307;SDS011;7755;52.208;6.964;2022-08-19T20:04:00;20.77;;;18.70;;
15307;SDS011;7755;52.208;6.964;2022-08-19T20:08:03;20.87;;;18.77;;
15307;SDS011;7755;52.208;6.964;2022-08-19T20:12:22;22.20;;;20.00;;
15307;SDS011;7755;52.208;6.964;2022-08-19T20:16:24;21.90;;;19.70;;
15307;SDS011;7755;52.208;6.964;2022-08-19T20:20:28;24.17;;;21.80;;
15307;SDS011;7755;52.208;6.964;2022-08-19T20:24:33;24.80;;;22.40;;
15307;SDS011;7755;52.208;6.964;2022-08-19T20:28:35;23.83;;;21.47;;
15307;SDS011;7755;52.208;6.964;2022-08-19T20:32:37;21.13;;;19.10;;
15307;SDS011;7755;52.208;6.964;2022-08-19T20:36:39;22.03;;;19.93;;
15307;SDS011;7755;52.208;6.964;2022-08-19T20:40:42;21.63;;;19.73;;
15307;SDS011;7755;52.208;6.964;2022-08-19T20:44:44;18.87;;;17.17;;
15307;SDS011;7755;52.208;6.964;2022-08-19T20:48:46;20.27;;;18.33;;
15307;SDS011;7755;52.208;6.964;2022-08-19T20:52:48;20.07;;;18.17;;
15307;SDS011;7755;52.208;6.964;2022-08-19T20:56:51;19.23;;;17.43;;
15307;SDS011;7755;52.208;6.964;2022-08-19T21:00:53;19.60;;;17.60;;
15307;SDS011;7755;52.208;6.964;2022-08-19T21:04:59;19.37;;;17.53;;
15307;SDS011;7755;52.208;6.964;2022-08-19T21:09:01;21.17;;;19.17;;
15307;SDS011;7755;52.208;6.964;2022-08-19T21:13:04;17.77;;;16.27;;
15307;SDS011;7755;52.208;6.964;2022-08-19T21:17:06;18.83;;;17.10;;
15307;SDS011;7755;52.208;6.964;2022-08-19T21:21:07;17.87;;;16.20;;
15307;SDS011;7755;52.208;6.964;2022-08-19T21:25:10;17.00;;;15.50;;
15307;SDS011;7755;52.208;6.964;2022-08-19T21:29:13;15.10;;;13.80;;
15307;SDS011;7755;52.208;6.964;2022-08-19T21:33:15;23.10;;;20.80;;
15307;SDS011;7755;52.208;6.964;2022-08-19T21:37:16;21.10;;;19.00;;
15307;SDS011;7755;52.208;6.964;2022-08-19T21:41:19;20.50;;;18.37;;
15307;SDS011;7755;52.208;6.964;2022-08-19T21:45:22;22.37;;;20.07;;
15307;SDS011;7755;52.208;6.964;2022-08-19T21:49:24;19.77;;;17.87;;
15307;SDS011;7755;52.208;6.964;2022-08-19T21:53:27;24.77;;;22.37;;
15307;SDS011;7755;52.208;6.964;2022-08-19T21:57:29;21.43;;;19.53;;
15307;SDS011;7755;52.208;6.964;2022-08-19T22:01:32;17.37;;;15.83;;
15307;SDS011;7755;52.208;6.964;2022-08-19T22:05:35;20.97;;;18.70;;
15307;SDS011;7755;52.208;6.964;2022-08-19T22:09:37;20.37;;;18.30;;
15307;SDS011;7755;52.208;6.964;2022-08-19T22:13:39;20.53;;;18.53;;
15307;SDS011;7755;52.208;6.964;2022-08-19T22:17:42;15.97;;;14.47;;
15307;SDS011;7755;52.208;6.964;2022-08-19T22:21:44;20.73;;;18.73;;
15307;SDS011;7755;52.208;6.964;2022-08-19T22:25:45;20.73;;;18.90;;
15307;SDS011;7755;52.208;6.964;2022-08-19T22:29:48;22.37;;;20.17;;
15307;SDS011;7755;52.208;6.964;2022-08-19T22:33:51;21.53;;;19.53;;
15307;SDS011;7755;52.208;6.964;2022-08-19T22:37:52;23.60;;;21.43;;
15307;SDS011;7755;52.208;6.964;2022-08-19T22:41:54;21.30;;;19.33;;
15307;SDS011;7755;52.208;6.964;2022-08-19T22:45:56;17.17;;;15.53;;
15307;SDS011;7755;52.208;6.964;2022-08-19T22:50:00;18.37;;;16.77;;
15307;SDS011;7755;52.208;6.964;2022-08-19T22:54:03;17.20;;;15.60;;
15307;SDS011;7755;52.208;6.964;2022-08-19T22:58:05;15.83;;;14.43;;
15307;SDS011;7755;52.208;6.964;2022-08-19T23:02:07;14.43;;;13.13;;
15307;SDS011;7755;52.208;6.964;2022-08-19T23:06:13;12.53;;;11.43;;
15307;SDS011;7755;52.208;6.964;2022-08-19T23:10:15;13.13;;;11.93;;
15307;SDS011;7755;52.208;6.964;2022-08-19T23:14:18;12.23;;;11.13;;
15307;SDS011;7755;52.208;6.964;2022-08-19T23:18:20;7.17;;;6.47;;
15307;SDS011;7755;52.208;6.964;2022-08-19T23:22:23;4.80;;;4.50;;
15307;SDS011;7755;52.208;6.964;2022-08-19T23:26:25;3.03;;;2.83;;
15307;SDS011;7755;52.208;6.964;2022-08-19T23:30:27;3.20;;;2.90;;
15307;SDS011;7755;52.208;6.964;2022-08-19T23:34:28;2.60;;;2.50;;
15307;SDS011;7755;52.208;6.964;2022-08-19T23:38:31;2.50;;;2.40;;
15307;SDS011;7755;52.208;6.964;2022-08-19T23:42:33;2.60;;;2.50;;
15307;SDS011;7755;52.208;6.964;2022-08-19T23:46:35;2.47;;;2.27;;
15307;SDS011;7755;52.208;6.964;2022-08-19T23:50:38;2.50;;;2.30;;
15307;SDS011;7755;52.208;6.964;2022-08-19T23:54:42;3.37;;;3.17;;
15307;SDS011;7755;52.208;6.964;2022-08-19T23:58:44;2.80;;;2.60;;
